MSR69A HELX-HECA
Flight info
| Callsign | MSR69A |
|---|---|
| Flight time | 0h 50m |
| Altitude | 22000 |
| Route | LXR A727 CVO |
| Aircraft | A320/M-SDE3FGHIRWY/LB1 |
Departure
| Time | 2026-05-07 14:51 |
|---|---|
| Airport | Luxor International Airport (HELX) |
Arrival
| Time | 2026-05-07 15:42 |
|---|---|
| Airport | Cairo International Airport (HECA) |
| Time | Latitude | Longitude | Altitude | Speed | Heading |
|---|---|---|---|---|---|
| 2026-05-07 14:40 | 25.67394 | 32.70397 | 332 ft | 0 kts | 303° |
| 2026-05-07 14:44 | 25.67388 | 32.70407 | 328 ft | 2 kts | 297° |
| 2026-05-07 14:44 | 25.67381 | 32.70423 | 330 ft | 2 kts | 291° |
| 2026-05-07 14:44 | 25.67376 | 32.70441 | 328 ft | 2 kts | 257° |
| 2026-05-07 14:44 | 25.67384 | 32.70456 | 329 ft | 2 kts | 210° |
| 2026-05-07 14:45 | 25.67390 | 32.70459 | 330 ft | 0 kts | 208° |
| 2026-05-07 14:46 | 25.67384 | 32.70456 | 329 ft | 3 kts | 208° |
| 2026-05-07 14:46 | 25.67346 | 32.70434 | 331 ft | 9 kts | 207° |
| 2026-05-07 14:46 | 25.67271 | 32.70392 | 332 ft | 15 kts | 207° |
| 2026-05-07 14:47 | 25.67158 | 32.70329 | 332 ft | 21 kts | 207° |
| 2026-05-07 14:47 | 25.67035 | 32.70293 | 328 ft | 15 kts | 149° |
| 2026-05-07 14:47 | 25.66980 | 32.70379 | 329 ft | 13 kts | 147° |
| 2026-05-07 14:47 | 25.66898 | 32.70367 | 332 ft | 12 kts | 200° |
| 2026-05-07 14:48 | 25.66823 | 32.70334 | 332 ft | 13 kts | 202° |
| 2026-05-07 14:48 | 25.66719 | 32.70285 | 332 ft | 19 kts | 203° |
| 2026-05-07 14:48 | 25.66582 | 32.70221 | 331 ft | 24 kts | 202° |
| 2026-05-07 14:48 | 25.66419 | 32.70145 | 332 ft | 26 kts | 203° |
| 2026-05-07 14:49 | 25.66243 | 32.70064 | 332 ft | 28 kts | 202° |
| 2026-05-07 14:49 | 25.66056 | 32.69977 | 332 ft | 30 kts | 203° |
| 2026-05-07 14:49 | 25.65913 | 32.69953 | 330 ft | 7 kts | 133° |
| 2026-05-07 14:49 | 25.65898 | 32.69977 | 330 ft | 3 kts | 119° |
| 2026-05-07 14:50 | 25.65882 | 32.70015 | 331 ft | 8 kts | 114° |
| 2026-05-07 14:50 | 25.65879 | 32.70075 | 332 ft | 8 kts | 46° |
| 2026-05-07 14:50 | 25.65945 | 32.70105 | 329 ft | 21 kts | 20° |
| 2026-05-07 14:50 | 25.66338 | 32.70287 | 331 ft | 98 kts | 23° |
| 2026-05-07 14:51 | 25.67159 | 32.70665 | 333 ft | 156 kts | 22° |
| 2026-05-07 14:51 | 25.68207 | 32.71165 | 874 ft | 166 kts | 20° |
| 2026-05-07 14:51 | 25.69250 | 32.71688 | 1715 ft | 167 kts | 26° |
| 2026-05-07 14:51 | 25.70183 | 32.72494 | 2436 ft | 176 kts | 34° |
| 2026-05-07 14:52 | 25.71195 | 32.73405 | 2862 ft | 199 kts | 35° |
| 2026-05-07 14:52 | 25.72337 | 32.74439 | 3253 ft | 224 kts | 36° |
| 2026-05-07 14:52 | 25.73591 | 32.75577 | 3701 ft | 248 kts | 35° |
| 2026-05-07 14:52 | 25.75163 | 32.76435 | 4338 ft | 257 kts | 6° |
| 2026-05-07 14:53 | 25.76932 | 32.76238 | 5207 ft | 261 kts | 339° |
| 2026-05-07 14:53 | 25.78644 | 32.75530 | 6111 ft | 265 kts | 341° |
| 2026-05-07 14:53 | 25.80438 | 32.74955 | 6974 ft | 271 kts | 344° |
| 2026-05-07 14:53 | 25.82289 | 32.74431 | 7787 ft | 277 kts | 344° |
| 2026-05-07 14:54 | 25.84173 | 32.73910 | 8626 ft | 281 kts | 344° |
| 2026-05-07 14:54 | 25.86081 | 32.73369 | 9509 ft | 286 kts | 343° |
| 2026-05-07 14:54 | 25.88025 | 32.72803 | 10222 ft | 296 kts | 343° |
| 2026-05-07 14:54 | 25.90093 | 32.72184 | 10517 ft | 319 kts | 342° |
| 2026-05-07 14:55 | 25.92299 | 32.71511 | 10932 ft | 336 kts | 342° |
| 2026-05-07 14:55 | 25.94576 | 32.70813 | 11631 ft | 342 kts | 342° |
| 2026-05-07 14:55 | 25.96884 | 32.70105 | 12377 ft | 346 kts | 342° |
| 2026-05-07 14:55 | 25.99218 | 32.69384 | 13155 ft | 350 kts | 342° |
| 2026-05-07 14:56 | 26.01542 | 32.68664 | 13898 ft | 353 kts | 343° |
| 2026-05-07 14:56 | 26.03913 | 32.67928 | 14587 ft | 356 kts | 342° |
| 2026-05-07 14:56 | 26.06318 | 32.67180 | 15297 ft | 360 kts | 342° |
| 2026-05-07 14:56 | 26.08741 | 32.66427 | 15994 ft | 363 kts | 342° |
| 2026-05-07 14:57 | 26.11184 | 32.65672 | 16679 ft | 366 kts | 342° |
| 2026-05-07 14:57 | 26.13649 | 32.64913 | 17348 ft | 370 kts | 343° |
| 2026-05-07 14:57 | 26.16143 | 32.64143 | 18027 ft | 374 kts | 342° |
| 2026-05-07 14:57 | 26.18658 | 32.63365 | 18644 ft | 377 kts | 342° |
| 2026-05-07 14:58 | 26.21197 | 32.62577 | 19253 ft | 380 kts | 342° |
| 2026-05-07 14:58 | 26.23752 | 32.61785 | 19867 ft | 382 kts | 343° |
| 2026-05-07 14:58 | 26.26324 | 32.60989 | 20489 ft | 385 kts | 343° |
| 2026-05-07 14:58 | 26.28881 | 32.60196 | 21090 ft | 388 kts | 343° |
| 2026-05-07 14:59 | 26.31487 | 32.59388 | 21671 ft | 391 kts | 343° |
| 2026-05-07 14:59 | 26.34106 | 32.58575 | 21861 ft | 391 kts | 343° |
| 2026-05-07 14:59 | 26.36741 | 32.57756 | 21914 ft | 394 kts | 343° |
| 2026-05-07 14:59 | 26.39383 | 32.56933 | 21912 ft | 394 kts | 343° |
| 2026-05-07 15:00 | 26.42022 | 32.56114 | 21911 ft | 394 kts | 343° |
| 2026-05-07 15:00 | 26.44670 | 32.55293 | 21917 ft | 395 kts | 343° |
| 2026-05-07 15:00 | 26.47311 | 32.54472 | 21918 ft | 395 kts | 343° |
| 2026-05-07 15:00 | 26.49953 | 32.53650 | 21918 ft | 395 kts | 343° |
| 2026-05-07 15:01 | 26.52607 | 32.52820 | 21922 ft | 395 kts | 343° |
| 2026-05-07 15:01 | 26.55316 | 32.51967 | 21913 ft | 395 kts | 342° |
| 2026-05-07 15:01 | 26.57971 | 32.51133 | 21915 ft | 395 kts | 343° |
| 2026-05-07 15:01 | 26.60614 | 32.50307 | 21914 ft | 395 kts | 343° |
| 2026-05-07 15:02 | 26.63256 | 32.49484 | 21916 ft | 395 kts | 343° |
| 2026-05-07 15:02 | 26.65909 | 32.48657 | 21911 ft | 395 kts | 343° |
| 2026-05-07 15:02 | 26.68558 | 32.47833 | 21910 ft | 395 kts | 343° |
| 2026-05-07 15:02 | 26.71209 | 32.47010 | 21911 ft | 395 kts | 343° |
| 2026-05-07 15:03 | 26.73851 | 32.46186 | 21913 ft | 395 kts | 343° |
| 2026-05-07 15:03 | 26.76460 | 32.45368 | 21917 ft | 395 kts | 343° |
| 2026-05-07 15:03 | 26.79096 | 32.44536 | 21916 ft | 394 kts | 343° |
| 2026-05-07 15:03 | 26.81746 | 32.43702 | 21915 ft | 394 kts | 343° |
| 2026-05-07 15:04 | 26.84383 | 32.42876 | 21916 ft | 394 kts | 343° |
| 2026-05-07 15:04 | 26.87028 | 32.42049 | 21916 ft | 394 kts | 343° |
| 2026-05-07 15:04 | 26.89662 | 32.41226 | 21918 ft | 394 kts | 343° |
| 2026-05-07 15:04 | 26.92312 | 32.40397 | 21920 ft | 394 kts | 343° |
| 2026-05-07 15:05 | 26.94945 | 32.39568 | 21917 ft | 394 kts | 343° |
| 2026-05-07 15:05 | 26.97590 | 32.38734 | 21917 ft | 394 kts | 343° |
| 2026-05-07 15:05 | 27.00226 | 32.37902 | 21919 ft | 394 kts | 343° |
| 2026-05-07 15:05 | 27.02868 | 32.37068 | 21922 ft | 394 kts | 343° |
| 2026-05-07 15:06 | 27.05545 | 32.36224 | 21921 ft | 394 kts | 343° |
| 2026-05-07 15:06 | 27.08253 | 32.35374 | 21918 ft | 394 kts | 343° |
| 2026-05-07 15:06 | 27.10895 | 32.34544 | 21916 ft | 394 kts | 343° |
| 2026-05-07 15:06 | 27.13534 | 32.33712 | 21920 ft | 394 kts | 343° |
| 2026-05-07 15:07 | 27.16179 | 32.32876 | 21922 ft | 394 kts | 343° |
| 2026-05-07 15:07 | 27.18815 | 32.32040 | 21922 ft | 394 kts | 343° |
| 2026-05-07 15:07 | 27.21453 | 32.31206 | 21922 ft | 394 kts | 343° |
| 2026-05-07 15:07 | 27.24101 | 32.30372 | 21919 ft | 394 kts | 343° |
| 2026-05-07 15:08 | 27.26772 | 32.29531 | 21922 ft | 394 kts | 343° |
| 2026-05-07 15:08 | 27.29381 | 32.28708 | 21923 ft | 394 kts | 343° |
| 2026-05-07 15:08 | 27.32090 | 32.27853 | 21915 ft | 394 kts | 343° |
| 2026-05-07 15:08 | 27.34736 | 32.27017 | 21928 ft | 394 kts | 343° |
| 2026-05-07 15:09 | 27.37373 | 32.26184 | 21928 ft | 394 kts | 343° |
| 2026-05-07 15:09 | 27.40019 | 32.25348 | 21933 ft | 394 kts | 343° |
| 2026-05-07 15:09 | 27.42654 | 32.24512 | 21924 ft | 394 kts | 343° |
| 2026-05-07 15:09 | 27.45288 | 32.23674 | 21920 ft | 394 kts | 343° |
| 2026-05-07 15:10 | 27.47932 | 32.22831 | 21941 ft | 394 kts | 343° |
| 2026-05-07 15:10 | 27.50577 | 32.21988 | 21945 ft | 394 kts | 343° |
| 2026-05-07 15:10 | 27.53215 | 32.21151 | 21942 ft | 394 kts | 343° |
| 2026-05-07 15:10 | 27.55853 | 32.20317 | 21948 ft | 394 kts | 343° |
| 2026-05-07 15:11 | 27.58497 | 32.19479 | 21959 ft | 394 kts | 343° |
| 2026-05-07 15:11 | 27.61139 | 32.18642 | 21951 ft | 394 kts | 343° |
| 2026-05-07 15:11 | 27.63775 | 32.17806 | 21953 ft | 394 kts | 343° |
| 2026-05-07 15:11 | 27.66419 | 32.16965 | 21966 ft | 394 kts | 343° |
| 2026-05-07 15:12 | 27.68204 | 32.16397 | 21964 ft | 394 kts | 343° |
| 2026-05-07 15:12 | 27.70846 | 32.15554 | 21971 ft | 394 kts | 343° |
| 2026-05-07 15:12 | 27.74343 | 32.14436 | 21982 ft | 394 kts | 343° |
| 2026-05-07 15:12 | 27.76123 | 32.13867 | 21977 ft | 394 kts | 343° |
| 2026-05-07 15:13 | 27.78765 | 32.13023 | 21988 ft | 394 kts | 343° |
| 2026-05-07 15:13 | 27.81403 | 32.12182 | 21980 ft | 394 kts | 343° |
| 2026-05-07 15:13 | 27.84045 | 32.11337 | 21984 ft | 394 kts | 343° |
| 2026-05-07 15:13 | 27.86680 | 32.10495 | 21989 ft | 394 kts | 343° |
| 2026-05-07 15:14 | 27.89323 | 32.09650 | 21995 ft | 394 kts | 343° |
| 2026-05-07 15:14 | 27.91958 | 32.08805 | 21999 ft | 394 kts | 343° |
| 2026-05-07 15:14 | 27.94634 | 32.07946 | 22008 ft | 394 kts | 343° |
| 2026-05-07 15:14 | 27.97268 | 32.07101 | 22011 ft | 394 kts | 343° |
| 2026-05-07 15:15 | 27.99908 | 32.06254 | 22019 ft | 394 kts | 343° |
| 2026-05-07 15:15 | 28.02514 | 32.05420 | 22009 ft | 394 kts | 343° |
| 2026-05-07 15:15 | 28.05150 | 32.04581 | 22011 ft | 394 kts | 343° |
| 2026-05-07 15:15 | 28.07785 | 32.03755 | 22026 ft | 394 kts | 343° |
| 2026-05-07 15:16 | 28.10427 | 32.02932 | 22026 ft | 394 kts | 343° |
| 2026-05-07 15:16 | 28.13064 | 32.02113 | 22025 ft | 393 kts | 343° |
| 2026-05-07 15:16 | 28.15744 | 32.01280 | 22030 ft | 393 kts | 343° |
| 2026-05-07 15:16 | 28.18381 | 32.00458 | 22025 ft | 393 kts | 343° |
| 2026-05-07 15:17 | 28.20982 | 31.99643 | 22021 ft | 393 kts | 343° |
| 2026-05-07 15:17 | 28.23620 | 31.98816 | 22024 ft | 393 kts | 343° |
| 2026-05-07 15:17 | 28.26257 | 31.97989 | 22031 ft | 393 kts | 343° |
| 2026-05-07 15:17 | 28.28892 | 31.97161 | 22030 ft | 393 kts | 343° |
| 2026-05-07 15:18 | 28.31529 | 31.96334 | 22022 ft | 393 kts | 343° |
| 2026-05-07 15:18 | 28.34161 | 31.95507 | 22027 ft | 393 kts | 343° |
| 2026-05-07 15:18 | 28.36797 | 31.94679 | 22032 ft | 393 kts | 343° |
| 2026-05-07 15:18 | 28.39395 | 31.93864 | 22026 ft | 393 kts | 343° |
| 2026-05-07 15:19 | 28.42020 | 31.93039 | 22034 ft | 392 kts | 343° |
| 2026-05-07 15:19 | 28.44650 | 31.92212 | 22033 ft | 392 kts | 343° |
| 2026-05-07 15:19 | 28.47281 | 31.91380 | 22032 ft | 392 kts | 343° |
| 2026-05-07 15:19 | 28.49916 | 31.90545 | 22034 ft | 392 kts | 343° |
| 2026-05-07 15:20 | 28.52575 | 31.89702 | 22023 ft | 392 kts | 343° |
| 2026-05-07 15:20 | 28.55206 | 31.88869 | 22031 ft | 392 kts | 343° |
| 2026-05-07 15:20 | 28.57834 | 31.88039 | 22034 ft | 392 kts | 343° |
| 2026-05-07 15:20 | 28.60383 | 31.87232 | 22026 ft | 392 kts | 343° |
| 2026-05-07 15:21 | 28.63090 | 31.86372 | 22030 ft | 392 kts | 343° |
| 2026-05-07 15:21 | 28.65706 | 31.85539 | 22029 ft | 392 kts | 343° |
| 2026-05-07 15:21 | 28.68380 | 31.84693 | 22027 ft | 392 kts | 343° |
| 2026-05-07 15:21 | 28.71008 | 31.83864 | 22029 ft | 392 kts | 343° |
| 2026-05-07 15:22 | 28.73670 | 31.83024 | 22034 ft | 392 kts | 343° |
| 2026-05-07 15:22 | 28.76292 | 31.82192 | 22033 ft | 392 kts | 343° |
| 2026-05-07 15:22 | 28.78919 | 31.81361 | 22028 ft | 392 kts | 343° |
| 2026-05-07 15:22 | 28.81509 | 31.80542 | 22036 ft | 392 kts | 343° |
| 2026-05-07 15:23 | 28.84134 | 31.79709 | 22034 ft | 391 kts | 343° |
| 2026-05-07 15:23 | 28.86760 | 31.78872 | 22032 ft | 391 kts | 343° |
| 2026-05-07 15:23 | 28.89382 | 31.78033 | 22046 ft | 391 kts | 343° |
| 2026-05-07 15:23 | 28.92033 | 31.77183 | 22035 ft | 391 kts | 343° |
| 2026-05-07 15:24 | 28.94647 | 31.76349 | 21980 ft | 388 kts | 343° |
| 2026-05-07 15:24 | 28.97215 | 31.75534 | 21726 ft | 378 kts | 343° |
| 2026-05-07 15:24 | 28.99726 | 31.74735 | 21475 ft | 373 kts | 343° |
| 2026-05-07 15:24 | 29.02283 | 31.73912 | 21215 ft | 370 kts | 343° |
| 2026-05-07 15:25 | 29.04757 | 31.73109 | 20962 ft | 369 kts | 343° |
| 2026-05-07 15:25 | 29.07222 | 31.72307 | 20714 ft | 368 kts | 343° |
| 2026-05-07 15:25 | 29.09674 | 31.71511 | 20486 ft | 366 kts | 343° |
| 2026-05-07 15:25 | 29.12093 | 31.70724 | 20240 ft | 365 kts | 343° |
| 2026-05-07 15:26 | 29.14556 | 31.69925 | 19995 ft | 363 kts | 343° |
| 2026-05-07 15:26 | 29.16991 | 31.69135 | 19761 ft | 362 kts | 343° |
| 2026-05-07 15:26 | 29.19401 | 31.68352 | 19526 ft | 360 kts | 344° |
| 2026-05-07 15:26 | 29.21816 | 31.67565 | 19292 ft | 359 kts | 344° |
| 2026-05-07 15:27 | 29.24212 | 31.66785 | 19057 ft | 358 kts | 344° |
| 2026-05-07 15:27 | 29.26603 | 31.66008 | 18826 ft | 357 kts | 344° |
| 2026-05-07 15:27 | 29.28988 | 31.65237 | 18600 ft | 356 kts | 344° |
| 2026-05-07 15:27 | 29.31374 | 31.64465 | 18367 ft | 354 kts | 344° |
| 2026-05-07 15:28 | 29.33737 | 31.63700 | 18111 ft | 353 kts | 344° |
| 2026-05-07 15:28 | 29.36079 | 31.62938 | 17697 ft | 348 kts | 344° |
| 2026-05-07 15:28 | 29.38367 | 31.62191 | 17227 ft | 345 kts | 344° |
| 2026-05-07 15:28 | 29.40673 | 31.61436 | 16736 ft | 343 kts | 343° |
| 2026-05-07 15:29 | 29.42995 | 31.60678 | 16246 ft | 342 kts | 343° |
| 2026-05-07 15:29 | 29.45246 | 31.59943 | 15754 ft | 341 kts | 343° |
| 2026-05-07 15:29 | 29.47528 | 31.59196 | 15241 ft | 341 kts | 343° |
| 2026-05-07 15:29 | 29.49804 | 31.58452 | 14759 ft | 340 kts | 343° |
| 2026-05-07 15:30 | 29.52073 | 31.57709 | 14274 ft | 339 kts | 343° |
| 2026-05-07 15:30 | 29.54333 | 31.56969 | 13781 ft | 338 kts | 343° |
| 2026-05-07 15:30 | 29.56596 | 31.56231 | 13257 ft | 337 kts | 343° |
| 2026-05-07 15:30 | 29.58837 | 31.55499 | 12756 ft | 334 kts | 343° |
| 2026-05-07 15:31 | 29.61059 | 31.54772 | 12260 ft | 332 kts | 343° |
| 2026-05-07 15:31 | 29.63276 | 31.54047 | 11753 ft | 329 kts | 343° |
| 2026-05-07 15:31 | 29.65477 | 31.53326 | 11250 ft | 327 kts | 343° |
| 2026-05-07 15:31 | 29.67632 | 31.52621 | 10748 ft | 326 kts | 344° |
| 2026-05-07 15:32 | 29.69718 | 31.51750 | 10573 ft | 313 kts | 333° |
| 2026-05-07 15:32 | 29.71500 | 31.50405 | 10452 ft | 300 kts | 321° |
| 2026-05-07 15:32 | 29.73056 | 31.48881 | 10331 ft | 288 kts | 321° |
| 2026-05-07 15:32 | 29.74572 | 31.47407 | 10106 ft | 283 kts | 321° |
| 2026-05-07 15:33 | 29.76078 | 31.45947 | 9746 ft | 285 kts | 321° |
| 2026-05-07 15:33 | 29.77603 | 31.44470 | 9316 ft | 284 kts | 321° |
| 2026-05-07 15:33 | 29.79098 | 31.43020 | 8687 ft | 279 kts | 321° |
| 2026-05-07 15:33 | 29.80569 | 31.41590 | 7983 ft | 275 kts | 321° |
| 2026-05-07 15:34 | 29.82023 | 31.40175 | 7315 ft | 271 kts | 321° |
| 2026-05-07 15:34 | 29.83472 | 31.38767 | 6672 ft | 266 kts | 321° |
| 2026-05-07 15:34 | 29.84877 | 31.37402 | 6034 ft | 263 kts | 322° |
| 2026-05-07 15:34 | 29.86263 | 31.36053 | 5456 ft | 261 kts | 322° |
| 2026-05-07 15:35 | 29.87669 | 31.34682 | 4877 ft | 259 kts | 323° |
| 2026-05-07 15:35 | 29.89019 | 31.33357 | 4495 ft | 247 kts | 322° |
| 2026-05-07 15:35 | 29.90146 | 31.31964 | 4323 ft | 227 kts | 315° |
| 2026-05-07 15:35 | 29.91139 | 31.30629 | 4071 ft | 214 kts | 315° |
| 2026-05-07 15:36 | 29.92093 | 31.29330 | 3828 ft | 211 kts | 315° |
| 2026-05-07 15:36 | 29.93065 | 31.28049 | 3499 ft | 211 kts | 321° |
| 2026-05-07 15:36 | 29.94213 | 31.27034 | 3202 ft | 206 kts | 333° |
| 2026-05-07 15:36 | 29.95443 | 31.26184 | 2901 ft | 205 kts | 335° |
| 2026-05-07 15:37 | 29.96763 | 31.25646 | 2630 ft | 199 kts | 354° |
| 2026-05-07 15:37 | 29.98100 | 31.25657 | 2514 ft | 187 kts | 12° |
| 2026-05-07 15:37 | 29.99293 | 31.26128 | 2502 ft | 178 kts | 29° |
| 2026-05-07 15:37 | 30.00288 | 31.26978 | 2510 ft | 176 kts | 45° |
| 2026-05-07 15:38 | 30.00821 | 31.27673 | 2505 ft | 173 kts | 46° |
| 2026-05-07 15:38 | 30.01683 | 31.28816 | 2542 ft | 168 kts | 46° |
| 2026-05-07 15:38 | 30.02422 | 31.29796 | 2504 ft | 158 kts | 47° |
| 2026-05-07 15:38 | 30.03165 | 31.30781 | 2366 ft | 153 kts | 46° |
| 2026-05-07 15:39 | 30.03877 | 31.31727 | 2187 ft | 150 kts | 46° |
| 2026-05-07 15:39 | 30.04590 | 31.32672 | 1994 ft | 149 kts | 47° |
| 2026-05-07 15:39 | 30.05250 | 31.33551 | 1816 ft | 137 kts | 47° |
| 2026-05-07 15:39 | 30.05875 | 31.34381 | 1634 ft | 128 kts | 45° |
| 2026-05-07 15:40 | 30.06463 | 31.35161 | 1458 ft | 126 kts | 45° |
| 2026-05-07 15:40 | 30.07032 | 31.35917 | 1294 ft | 126 kts | 47° |
| 2026-05-07 15:40 | 30.07606 | 31.36681 | 1137 ft | 125 kts | 48° |
| 2026-05-07 15:40 | 30.08182 | 31.37446 | 976 ft | 125 kts | 48° |
| 2026-05-07 15:41 | 30.08739 | 31.38187 | 810 ft | 123 kts | 45° |
| 2026-05-07 15:41 | 30.09302 | 31.38935 | 637 ft | 123 kts | 45° |
| 2026-05-07 15:41 | 30.09868 | 31.39689 | 467 ft | 125 kts | 46° |
| 2026-05-07 15:41 | 30.10427 | 31.40429 | 378 ft | 107 kts | 49° |
| 2026-05-07 15:42 | 30.10800 | 31.40931 | 371 ft | 58 kts | 49° |
| 2026-05-07 15:42 | 30.10995 | 31.41180 | 374 ft | 35 kts | 47° |
| 2026-05-07 15:42 | 30.11137 | 31.41373 | 374 ft | 29 kts | 49° |
| 2026-05-07 15:42 | 30.11275 | 31.41525 | 373 ft | 26 kts | 33° |
| 2026-05-07 15:43 | 30.11427 | 31.41606 | 375 ft | 23 kts | 19° |
| 2026-05-07 15:43 | 30.11558 | 31.41590 | 375 ft | 20 kts | 292° |
| 2026-05-07 15:43 | 30.11494 | 31.41456 | 375 ft | 19 kts | 230° |
| 2026-05-07 15:43 | 30.11408 | 31.41342 | 375 ft | 18 kts | 228° |
| 2026-05-07 15:44 | 30.11327 | 31.41238 | 375 ft | 17 kts | 228° |
| 2026-05-07 15:44 | 30.11250 | 31.41137 | 375 ft | 16 kts | 230° |
| 2026-05-07 15:44 | 30.11180 | 31.41041 | 375 ft | 15 kts | 229° |
| 2026-05-07 15:44 | 30.11111 | 31.40950 | 375 ft | 15 kts | 229° |
| 2026-05-07 15:45 | 30.11047 | 31.40863 | 375 ft | 14 kts | 229° |
| 2026-05-07 15:45 | 30.10987 | 31.40782 | 375 ft | 13 kts | 229° |
| 2026-05-07 15:45 | 30.10929 | 31.40708 | 375 ft | 12 kts | 228° |
| 2026-05-07 15:45 | 30.10877 | 31.40639 | 374 ft | 11 kts | 229° |
| 2026-05-07 15:46 | 30.10777 | 31.40505 | 374 ft | 10 kts | 229° |
| 2026-05-07 15:46 | 30.10733 | 31.40446 | 374 ft | 10 kts | 229° |
| 2026-05-07 15:46 | 30.10684 | 31.40376 | 374 ft | 12 kts | 244° |
| 2026-05-07 15:47 | 30.10708 | 31.40278 | 374 ft | 14 kts | 272° |
| 2026-05-07 15:47 | 30.10648 | 31.40175 | 374 ft | 17 kts | 229° |
| 2026-05-07 15:47 | 30.10561 | 31.40061 | 374 ft | 20 kts | 228° |
| 2026-05-07 15:47 | 30.10483 | 31.39932 | 374 ft | 19 kts | 263° |
| 2026-05-07 15:48 | 30.10545 | 31.39811 | 374 ft | 19 kts | 305° |
| 2026-05-07 15:48 | 30.10542 | 31.39666 | 374 ft | 19 kts | 255° |
| 2026-05-07 15:48 | 30.10518 | 31.39557 | 374 ft | 10 kts | 260° |
| 2026-05-07 15:48 | 30.10563 | 31.39503 | 374 ft | 11 kts | 342° |
| 2026-05-07 15:49 | 30.10644 | 31.39478 | 374 ft | 13 kts | 345° |
| 2026-05-07 15:49 | 30.10706 | 31.39518 | 374 ft | 10 kts | 77° |
| 2026-05-07 15:49 | 30.10713 | 31.39549 | 374 ft | 4 kts | 75° |
| 2026-05-07 15:49 | 30.10715 | 31.39560 | 374 ft | 0 kts | 76° |